Terminal Aerodrome Forecast
Issued by NWS

Home | Current Version | Previous Version | Graphics & Text | Print | Product List | Glossary On
Versions: 1 2 3 4 5 6 7 8 9 10 11 12 13 14 15 16 17 18 19 20 21 22
421
FTUS43 KICT 301459 AAA
TAFCNU
TAF AMD
KCNU 301459Z 3015/0112 19012G20KT P6SM SCT008 OVC015
      TEMPO 3015/3016 5SM -RA BR OVC008
     FM301700 18020G28KT P6SM OVC025
     FM302000 20020G26KT P6SM VCSH OVC035
     FM010400 26020G27KT P6SM OVC015=

USA.gov is the U.S. government's official web portal to all federal, state and local government web resources and services.